Time;durP1;ratioP1;P1;durP2;ratioP2;P2;SDS_P1;SDS_P2;PMS_P1;PMS_P2;Temp;Humidity;BMP_temperature;BMP_pressure;BME280_temperature;BME280_humidity;BME280_pressure;Samples;Min_cycle;Max_cycle;Signal;HPM_P1;HPM_P2
2022/09/03 00:00:23;;;;;;;2.53;2.33;;;15.00;99.20;;;;;;5077146;28;20500;-32
2022/09/03 00:03:32;;;;;;;4.32;2.38;;;15.00;99.30;;;;;;5075594;28;20032;-35
2022/09/03 00:06:19;;;;;;;2.80;2.60;;;14.90;99.90;;;;;;4969489;28;20023;-32
2022/09/03 00:08:52;;;;;;;2.47;2.28;;;15.00;99.90;;;;;;4963812;28;20046;-34
2022/09/03 00:11:26;;;;;;;2.38;2.08;;;15.00;98.80;;;;;;5043734;28;20048;-34
2022/09/03 00:14:09;;;;;;;2.30;2.10;;;15.00;98.80;;;;;;5082360;28;20028;-32
2022/09/03 00:16:51;;;;;;;2.47;2.28;;;15.00;99.00;;;;;;5061316;28;20024;-32
2022/09/03 00:19:22;;;;;;;2.80;2.50;;;14.90;99.90;;;;;;5082075;28;20024;-33
2022/09/03 00:21:55;;;;;;;2.60;2.40;;;14.80;99.90;;;;;;5081978;28;20027;-34
2022/09/03 00:24:25;;;;;;;2.55;2.35;;;14.80;99.90;;;;;;5082435;28;20444;-33
2022/09/03 00:26:58;;;;;;;3.38;2.38;;;14.90;99.40;;;;;;5079264;28;20031;-33
2022/09/03 00:29:31;;;;;;;2.47;2.28;;;14.90;99.60;;;;;;5081686;28;20038;-32
2022/09/03 00:32:06;;;;;;;3.67;2.10;;;14.90;99.80;;;;;;5080668;28;20032;-34
2022/09/03 00:34:38;;;;;;;2.45;2.15;;;14.90;99.40;;;;;;5082536;28;20031;-33
2022/09/03 00:37:04;;;;;;;2.05;1.95;;;14.80;99.80;;;;;;5063948;28;20226;-32
2022/09/03 00:39:30;;;;;;;2.30;2.10;;;14.70;99.60;;;;;;5083262;28;20036;-32
2022/09/03 00:42:08;;;;;;;2.78;2.10;;;14.70;99.60;;;;;;5078173;28;20499;-33
2022/09/03 00:44:42;;;;;;;2.08;1.88;;;14.70;99.50;;;;;;5082131;28;20028;-32
2022/09/03 00:47:23;;;;;;;2.10;2.00;;;14.70;99.60;;;;;;5081650;28;20990;-32
2022/09/03 00:50:15;;;;;;;2.67;2.20;;;14.60;99.90;;;;;;5075455;28;20448;-33
2022/09/03 00:52:51;;;;;;;2.42;2.20;;;14.70;99.30;;;;;;5087867;28;20055;-32
2022/09/03 00:55:28;;;;;;;2.20;2.00;;;14.70;99.50;;;;;;5084311;28;20043;-33
2022/09/03 00:57:55;;;;;;;2.17;1.98;;;14.70;99.00;;;;;;5078184;28;20497;-32
2022/09/03 01:00:21;;;;;;;2.05;1.95;;;14.70;98.20;;;;;;5086687;28;20099;-33
2022/09/03 01:03:09;;;;;;;2.72;1.80;;;14.70;98.30;;;;;;5080479;28;20040;-35
2022/09/03 01:06:00;;;;;;;1.98;1.88;;;14.70;98.00;;;;;;5087505;28;20020;-33
2022/09/03 01:08:32;;;;;;;1.80;1.70;;;14.60;98.20;;;;;;5082876;28;20024;-34
2022/09/03 01:11:18;;;;;;;1.80;1.70;;;14.60;98.20;;;;;;5084278;28;20036;-34
2022/09/03 01:14:06;;;;;;;1.77;1.60;;;14.60;98.20;;;;;;5080783;28;20029;-33
2022/09/03 01:16:44;;;;;;;2.05;1.88;;;14.70;97.80;;;;;;5086959;28;20127;-34
2022/09/03 01:19:12;;;;;;;1.95;1.65;;;14.60;98.10;;;;;;5065528;28;20075;-33
2022/09/03 01:22:06;;;;;;;2.47;1.70;;;14.60;97.90;;;;;;5082240;28;20036;-32
2022/09/03 01:25:00;;;;;;;2.50;1.90;;;14.50;98.10;;;;;;5084133;28;20482;-34
2022/09/03 01:28:09;;;;;;;1.88;1.77;;;14.20;99.00;;;;;;5081929;28;20024;-33
2022/09/03 01:30:41;;;;;;;1.95;1.85;;;14.30;98.90;;;;;;5075954;28;20057;-32
2022/09/03 01:33:30;;;;;;;2.60;1.90;;;14.30;99.00;;;;;;5083795;28;20032;-32
2022/09/03 01:36:07;;;;;;;2.72;1.90;;;14.30;99.00;;;;;;5085264;28;20051;-33
2022/09/03 01:38:53;;;;;;;2.40;2.08;;;14.20;99.00;;;;;;5082327;28;20228;-37
2022/09/03 01:44:49;;;;;;;2.25;1.92;;;14.10;99.70;;;;;;5079262;28;20084;-34
2022/09/03 01:47:50;;;;;;;2.17;2.08;;;14.20;99.60;;;;;;5083874;28;20085;-32
2022/09/03 01:50:34;;;;;;;3.42;2.28;;;14.00;99.90;;;;;;5080996;28;20038;-34
2022/09/03 01:53:18;;;;;;;2.70;2.15;;;14.00;99.90;;;;;;5084005;28;20094;-32
2022/09/03 01:56:07;;;;;;;4.03;2.10;;;14.10;99.90;;;;;;5085605;28;20216;-32
2022/09/03 01:58:53;;;;;;;3.25;1.90;;;14.10;99.90;;;;;;5063980;28;20027;-36
2022/09/03 02:01:34;;;;;;;2.80;2.33;;;14.00;99.90;;;;;;5084146;28;20032;-34
2022/09/03 02:04:00;;;;;;;2.40;2.20;;;14.00;99.90;;;;;;5084134;28;20032;-33
2022/09/03 02:06:30;;;;;;;2.20;2.00;;;13.90;99.90;;;;;;5081950;28;20089;-33
2022/09/03 02:08:56;;;;;;;2.65;2.10;;;13.90;99.90;;;;;;5082631;28;20059;-32
2022/09/03 02:11:23;;;;;;;2.45;2.25;;;13.90;99.90;;;;;;5047533;28;20131;-37
2022/09/03 02:13:53;;;;;;;2.28;2.08;;;13.80;99.90;;;;;;5069327;28;20530;-32
2022/09/03 02:16:23;;;;;;;2.10;1.90;;;13.80;99.90;;;;;;5083873;28;20054;-33
2022/09/03 02:18:56;;;;;;;2.33;1.95;;;13.80;99.90;;;;;;5085111;28;20107;-32
2022/09/03 02:21:24;;;;;;;2.90;2.10;;;13.80;99.90;;;;;;5084332;28;20051;-32
2022/09/03 02:23:50;;;;;;;2.23;2.10;;;13.80;99.90;;;;;;5068724;28;20445;-33
2022/09/03 02:26:21;;;;;;;2.63;2.42;;;13.90;99.90;;;;;;5080379;28;20284;-34
2022/09/03 02:28:48;;;;;;;2.53;2.00;;;13.70;99.90;;;;;;5085891;28;20107;-33
2022/09/03 02:31:14;;;;;;;3.05;2.30;;;13.60;99.90;;;;;;5080745;28;20047;-34
2022/09/03 02:33:45;;;;;;;2.50;2.22;;;13.50;99.90;;;;;;5084897;28;20488;-32
2022/09/03 02:36:14;;;;;;;4.65;2.33;;;13.30;99.90;;;;;;5083426;28;20028;-37
2022/09/03 02:38:44;;;;;;;2.00;1.90;;;13.30;99.90;;;;;;5083290;28;20024;-33
2022/09/03 02:41:12;;;;;;;2.53;2.17;;;13.40;99.90;;;;;;5077866;28;20024;-33
2022/09/03 02:43:49;;;;;;;2.35;2.20;;;13.50;99.90;;;;;;5077795;28;20042;-35
2022/09/03 02:46:20;;;;;;;1.92;1.83;;;13.50;99.90;;;;;;5081741;28;20504;-32
2022/09/03 02:48:46;;;;;;;2.50;2.30;;;13.40;99.90;;;;;;5076829;28;20067;-32
2022/09/03 02:51:12;;;;;;;2.47;2.30;;;13.40;99.90;;;;;;5080904;28;20060;-35
2022/09/03 02:53:38;;;;;;;2.20;2.00;;;13.50;99.90;;;;;;5078008;28;20036;-33
2022/09/03 02:56:04;;;;;;;2.90;2.63;;;13.60;99.90;;;;;;5081810;28;20031;-32
2022/09/03 02:58:30;;;;;;;2.50;2.30;;;13.70;99.90;;;;;;5063309;28;20041;-33
2022/09/03 03:00:57;;;;;;;4.72;2.08;;;13.60;99.90;;;;;;5065234;28;20370;-33
2022/09/03 03:03:22;;;;;;;2.30;2.10;;;13.50;99.90;;;;;;5080937;28;20047;-35
2022/09/03 03:05:51;;;;;;;2.22;1.92;;;13.60;99.90;;;;;;5084095;28;20028;-33
2022/09/03 03:08:20;;;;;;;2.33;2.13;;;13.60;99.90;;;;;;5084270;28;20348;-33
2022/09/03 03:10:48;;;;;;;3.78;2.15;;;13.60;99.90;;;;;;5079831;28;20032;-35
2022/09/03 03:13:14;;;;;;;2.30;2.10;;;13.60;99.90;;;;;;5061381;28;20032;-35
2022/09/03 03:15:40;;;;;;;2.40;2.20;;;13.60;99.90;;;;;;5082208;28;20036;-33
2022/09/03 03:18:06;;;;;;;3.47;1.85;;;13.60;99.90;;;;;;5083774;28;20097;-36
2022/09/03 03:20:32;;;;;;;2.90;2.22;;;13.50;99.90;;;;;;5084227;28;20437;-34
2022/09/03 03:23:01;;;;;;;2.83;2.00;;;13.20;99.90;;;;;;5059845;28;20063;-35
2022/09/03 03:25:26;;;;;;;2.95;2.20;;;13.30;99.90;;;;;;5083671;28;20028;-32
2022/09/03 03:27:55;;;;;;;5.25;2.38;;;13.20;99.90;;;;;;5081036;28;20792;-35
2022/09/03 03:30:22;;;;;;;2.50;2.30;;;13.00;99.90;;;;;;5079622;28;20107;-34
2022/09/03 03:32:48;;;;;;;2.13;2.00;;;13.00;99.90;;;;;;5081611;28;20035;-33
2022/09/03 03:35:14;;;;;;;2.72;2.10;;;13.10;99.90;;;;;;5078270;28;20017;-33
2022/09/03 03:37:39;;;;;;;2.95;2.13;;;13.10;99.90;;;;;;5083487;28;20340;-34
2022/09/03 03:40:06;;;;;;;2.58;2.38;;;13.10;99.90;;;;;;5085285;28;20041;-32
2022/09/03 03:42:35;;;;;;;2.15;1.90;;;13.10;99.90;;;;;;5066091;28;20046;-33
2022/09/03 03:45:03;;;;;;;3.55;2.17;;;13.00;99.90;;;;;;5077423;28;20488;-32
2022/09/03 03:47:32;;;;;;;;;;;13.00;99.90;;;;;;5085314;28;20416;-32
2022/09/03 03:49:58;;;;;;;;;;;13.10;99.90;;;;;;5077959;28;19912;-37
2022/09/03 03:52:24;;;;;;;2.25;2.05;;;13.10;99.90;;;;;;5081185;28;19912;-32
2022/09/03 03:54:51;;;;;;;2.38;2.25;;;13.00;99.90;;;;;;5061911;28;20036;-34
2022/09/03 03:57:18;;;;;;;2.45;2.20;;;12.90;99.90;;;;;;5080680;28;20556;-33
2022/09/03 03:59:44;;;;;;;2.28;2.08;;;13.10;99.90;;;;;;5079996;28;20024;-35
2022/09/03 04:02:10;;;;;;;2.72;1.92;;;13.00;99.90;;;;;;5081495;28;20135;-32
2022/09/03 04:04:36;;;;;;;2.88;1.88;;;12.70;99.90;;;;;;5081391;28;20107;-32
2022/09/03 04:07:01;;;;;;;2.50;2.30;;;12.70;99.90;;;;;;5077217;28;20540;-32
2022/09/03 04:09:27;;;;;;;3.00;2.13;;;12.80;99.90;;;;;;5081986;28;20031;-33
2022/09/03 04:11:52;;;;;;;2.80;2.35;;;12.40;99.90;;;;;;5077652;28;20084;-36
2022/09/03 04:14:18;;;;;;;3.10;2.30;;;12.50;99.90;;;;;;5081605;28;20106;-34
2022/09/03 04:16:45;;;;;;;3.38;2.17;;;12.40;99.90;;;;;;5079444;28;20473;-33
2022/09/03 04:19:12;;;;;;;2.60;2.40;;;12.30;99.90;;;;;;5081524;28;20036;-32
2022/09/03 04:21:38;;;;;;;2.35;2.15;;;12.40;99.90;;;;;;5081068;28;20475;-33
2022/09/03 04:24:04;;;;;;;3.55;2.88;;;12.40;99.90;;;;;;5082901;28;20600;-34
2022/09/03 04:26:32;;;;;;;2.95;2.75;;;12.50;99.90;;;;;;5069495;28;20012;-32
2022/09/03 04:29:08;;;;;;;3.35;2.60;;;12.50;99.90;;;;;;5085756;28;20024;-34
2022/09/03 04:31:36;;;;;;;3.38;2.30;;;12.60;99.90;;;;;;5081926;28;20492;-36
2022/09/03 04:34:05;;;;;;;2.75;2.55;;;12.80;99.90;;;;;;5086301;28;20028;-34
2022/09/03 04:36:32;;;;;;;2.80;2.60;;;12.70;99.90;;;;;;5070834;28;20048;-32
2022/09/03 04:38:59;;;;;;;2.95;2.72;;;12.60;99.90;;;;;;5083486;28;20056;-34
2022/09/03 04:41:27;;;;;;;3.20;2.50;;;12.70;99.90;;;;;;5085551;28;20047;-32
2022/09/03 04:43:54;;;;;;;2.53;2.38;;;12.90;99.90;;;;;;5084389;28;20197;-32
2022/09/03 04:46:22;;;;;;;3.25;2.42;;;12.90;99.90;;;;;;5085603;28;20055;-32
2022/09/03 04:48:50;;;;;;;2.35;2.15;;;13.00;99.90;;;;;;5084590;28;20025;-32
2022/09/03 04:51:18;;;;;;;2.28;2.00;;;13.10;99.90;;;;;;5082143;28;20031;-36
2022/09/03 04:53:46;;;;;;;2.97;2.50;;;13.20;99.90;;;;;;5083451;28;20403;-32
2022/09/03 04:56:17;;;;;;;3.80;3.40;;;13.00;99.90;;;;;;5086646;28;20020;-35
2022/09/03 04:58:43;;;;;;;4.13;3.03;;;12.90;99.90;;;;;;5084711;28;20035;-34
2022/09/03 05:01:10;;;;;;;3.95;2.55;;;13.00;99.90;;;;;;5085156;28;20036;-36
2022/09/03 05:03:37;;;;;;;3.87;2.83;;;13.10;99.90;;;;;;5080908;28;20485;-33
2022/09/03 05:06:04;;;;;;;2.85;2.53;;;13.10;99.90;;;;;;5083704;28;20058;-32
2022/09/03 05:08:30;;;;;;;3.63;2.60;;;13.20;99.90;;;;;;5084775;28;20115;-32
2022/09/03 05:10:59;;;;;;;5.18;2.80;;;13.20;99.90;;;;;;5081034;28;20429;-35
2022/09/03 05:13:27;;;;;;;3.45;2.60;;;13.10;99.90;;;;;;5084385;28;20073;-32
2022/09/03 05:15:59;;;;;;;3.83;2.80;;;13.00;99.90;;;;;;5082712;28;20020;-35
2022/09/03 05:18:25;;;;;;;2.42;2.22;;;13.10;99.90;;;;;;5084896;28;21483;-32
2022/09/03 05:21:09;;;;;;;3.28;2.28;;;13.20;99.90;;;;;;5065436;28;20386;-34
2022/09/03 05:23:39;;;;;;;3.28;2.97;;;13.40;99.90;;;;;;5067296;28;20028;-35
2022/09/03 05:26:09;;;;;;;3.95;2.30;;;13.40;99.90;;;;;;5080467;28;20020;-32
2022/09/03 05:28:36;;;;;;;3.33;3.03;;;13.40;99.90;;;;;;5081786;28;20032;-33
2022/09/03 05:31:03;;;;;;;3.38;3.13;;;13.40;99.90;;;;;;5084092;28;20043;-33
2022/09/03 05:33:32;;;;;;;2.92;2.70;;;13.40;99.90;;;;;;5083646;28;20397;-33
2022/09/03 05:36:02;;;;;;;6.22;2.75;;;13.40;99.90;;;;;;5084868;28;20032;-34
2022/09/03 05:38:29;;;;;;;3.22;2.80;;;13.50;99.90;;;;;;5082690;28;20055;-35
2022/09/03 05:41:01;;;;;;;2.53;2.30;;;13.40;99.90;;;;;;5084139;28;20480;-35
2022/09/03 05:43:27;;;;;;;3.30;3.00;;;13.40;99.90;;;;;;5081805;28;20130;-34
2022/09/03 05:46:17;;;;;;;3.88;2.60;;;13.40;99.90;;;;;;5083333;28;20020;-35
2022/09/03 05:48:43;;;;;;;2.97;2.72;;;13.50;99.90;;;;;;5072299;28;20028;-32
2022/09/03 05:51:16;;;;;;;4.97;3.20;;;13.40;99.90;;;;;;5086863;28;20086;-33
2022/09/03 05:53:45;;;;;;;3.20;2.72;;;13.30;99.90;;;;;;5082795;28;20024;-35
2022/09/03 05:56:21;;;;;;;4.75;3.00;;;13.10;99.90;;;;;;5086646;28;20111;-32
2022/09/03 05:58:52;;;;;;;3.05;2.70;;;13.10;99.90;;;;;;5082329;28;20040;-33
2022/09/03 06:01:24;;;;;;;4.30;2.88;;;13.10;99.90;;;;;;5085240;28;20041;-34
2022/09/03 06:04:11;;;;;;;5.25;3.17;;;13.00;99.90;;;;;;5082765;28;20037;-35
2022/09/03 06:06:38;;;;;;;4.85;3.40;;;13.00;99.90;;;;;;5081502;28;20115;-32
2022/09/03 06:09:19;;;;;;;5.82;3.10;;;13.10;99.90;;;;;;5085808;28;20039;-35
2022/09/03 06:11:45;;;;;;;3.95;2.92;;;13.10;99.90;;;;;;5082718;28;20028;-33
2022/09/03 06:14:13;;;;;;;3.38;2.80;;;13.20;99.90;;;;;;5083867;28;20036;-37
2022/09/03 06:16:41;;;;;;;6.28;3.38;;;13.30;99.90;;;;;;5085567;28;20500;-36
2022/09/03 06:19:09;;;;;;;3.35;3.03;;;13.40;99.90;;;;;;5080274;28;20496;-32
2022/09/03 06:21:41;;;;;;;3.87;3.27;;;13.50;99.90;;;;;;5081292;28;20082;-33
2022/09/03 06:24:13;;;;;;;4.80;3.72;;;13.50;99.90;;;;;;5067303;28;20108;-33
2022/09/03 06:26:39;;;;;;;5.82;4.10;;;13.30;99.90;;;;;;5081738;28;20456;-33
2022/09/03 06:29:05;;;;;;;5.10;3.78;;;13.00;99.90;;;;;;5084187;28;20050;-33
2022/09/03 06:31:31;;;;;;;5.22;3.72;;;12.80;99.90;;;;;;5079840;28;20020;-32
2022/09/03 06:33:57;;;;;;;4.50;3.70;;;12.80;99.90;;;;;;5083600;28;20308;-35
2022/09/03 06:36:25;;;;;;;5.13;4.30;;;12.70;99.90;;;;;;5080690;28;20024;-34
2022/09/03 06:38:52;;;;;;;4.22;3.72;;;12.70;99.90;;;;;;5080469;28;20108;-34
2022/09/03 06:41:23;;;;;;;4.90;4.15;;;12.70;99.90;;;;;;5083685;28;20122;-34
2022/09/03 06:43:53;;;;;;;5.90;4.10;;;12.70;99.90;;;;;;5081599;28;20455;-34
2022/09/03 06:46:21;;;;;;;6.30;3.78;;;12.70;99.90;;;;;;5081973;28;20081;-33
2022/09/03 06:48:47;;;;;;;5.00;4.07;;;12.70;99.90;;;;;;5063654;28;20101;-33
2022/09/03 06:51:15;;;;;;;5.22;4.03;;;12.90;99.90;;;;;;5085046;28;20039;-32
2022/09/03 06:53:47;;;;;;;5.07;3.90;;;13.00;99.90;;;;;;5079904;28;20029;-32
2022/09/03 06:56:18;;;;;;;4.72;4.03;;;13.00;99.90;;;;;;5084506;28;20036;-34
2022/09/03 06:58:46;;;;;;;4.40;4.00;;;13.10;99.90;;;;;;5081957;28;20464;-32
2022/09/03 07:01:11;;;;;;;6.23;4.47;;;13.20;99.90;;;;;;5083123;28;20063;-33
2022/09/03 07:03:39;;;;;;;5.32;4.05;;;13.30;99.90;;;;;;5083320;28;20032;-32
2022/09/03 07:06:07;;;;;;;5.13;4.30;;;13.40;99.90;;;;;;5083733;28;20554;-32
2022/09/03 07:08:33;;;;;;;5.43;4.65;;;13.50;99.90;;;;;;5084050;28;20038;-32
2022/09/03 07:11:10;;;;;;;5.43;4.00;;;13.70;99.90;;;;;;5081523;28;20543;-34
2022/09/03 07:13:39;;;;;;;6.90;4.65;;;13.80;99.90;;;;;;5078698;28;20123;-34
2022/09/03 07:16:07;;;;;;;5.57;3.70;;;13.90;99.90;;;;;;5066190;28;20036;-32
2022/09/03 07:18:33;;;;;;;9.90;4.25;;;14.00;99.90;;;;;;5083910;28;20079;-32
2022/09/03 07:21:11;;;;;;;3.83;3.50;;;14.10;99.90;;;;;;5084974;28;20083;-32
2022/09/03 07:23:38;;;;;;;7.97;4.00;;;14.20;99.90;;;;;;5085131;28;20668;-35
2022/09/03 07:26:13;;;;;;;5.72;4.30;;;14.30;99.90;;;;;;5082829;28;20028;-35
2022/09/03 07:28:40;;;;;;;5.28;3.58;;;14.40;99.90;;;;;;5084844;28;20054;-32
2022/09/03 07:31:18;;;;;;;6.45;4.20;;;14.40;99.90;;;;;;5084467;28;20109;-32
2022/09/03 07:33:47;;;;;;;6.82;3.90;;;14.50;99.90;;;;;;5084365;28;20040;-33
2022/09/03 07:36:15;;;;;;;4.22;3.78;;;14.60;99.90;;;;;;5085558;28;20129;-34
2022/09/03 07:38:45;;;;;;;4.03;3.67;;;14.60;99.90;;;;;;5083577;28;20035;-34
2022/09/03 07:41:12;;;;;;;4.30;3.60;;;14.80;99.90;;;;;;5083011;28;20038;-35
2022/09/03 07:43:41;;;;;;;4.80;3.53;;;14.80;99.90;;;;;;5081508;28;20028;-34
2022/09/03 07:46:07;;;;;;;5.47;3.90;;;15.00;99.90;;;;;;5081607;28;20457;-32
2022/09/03 07:48:33;;;;;;;5.93;4.00;;;15.10;99.90;;;;;;5088374;28;20020;-35
2022/09/03 07:51:02;;;;;;;4.88;4.22;;;15.20;99.90;;;;;;5083395;28;20094;-33
2022/09/03 07:53:28;;;;;;;5.53;4.00;;;15.30;99.90;;;;;;5061525;28;20028;-33
2022/09/03 07:56:04;;;;;;;4.03;3.63;;;15.40;99.90;;;;;;5064583;28;20157;-34
2022/09/03 07:58:31;;;;;;;5.43;4.57;;;15.50;99.90;;;;;;5082899;28;20016;-32
2022/09/03 08:00:57;;;;;;;7.00;4.35;;;15.60;99.90;;;;;;5084486;28;20142;-33
2022/09/03 08:03:23;;;;;;;6.13;3.85;;;15.60;99.90;;;;;;5082288;28;20055;-33
2022/09/03 08:05:48;;;;;;;5.30;4.70;;;15.60;99.90;;;;;;5083890;28;20028;-33
2022/09/03 08:08:14;;;;;;;5.35;4.85;;;15.70;99.90;;;;;;5084038;28;20397;-32
2022/09/03 08:10:40;;;;;;;6.18;4.80;;;15.70;99.90;;;;;;5084583;28;20307;-34
2022/09/03 08:13:06;;;;;;;5.88;4.60;;;15.80;99.90;;;;;;5083238;28;20051;-36
2022/09/03 08:15:33;;;;;;;5.43;4.53;;;15.90;99.90;;;;;;5080191;28;20036;-32
2022/09/03 08:17:59;;;;;;;4.63;4.22;;;16.00;99.90;;;;;;5084541;28;20040;-34
2022/09/03 08:20:26;;;;;;;4.70;4.30;;;16.10;99.90;;;;;;5083747;28;20055;-32
2022/09/03 08:22:52;;;;;;;5.97;4.90;;;16.20;99.90;;;;;;5082035;28;20503;-33
2022/09/03 08:25:17;;;;;;;6.10;4.20;;;16.30;99.90;;;;;;5085385;28;20020;-36
2022/09/03 08:27:43;;;;;;;5.20;4.70;;;16.50;99.90;;;;;;5081529;28;20761;-35
2022/09/03 08:30:10;;;;;;;5.80;4.30;;;16.60;99.90;;;;;;5082002;28;20357;-33
2022/09/03 08:32:37;;;;;;;5.18;4.13;;;16.60;99.90;;;;;;5081921;28;20401;-33
2022/09/03 08:35:04;;;;;;;4.63;4.20;;;16.80;99.90;;;;;;5067227;28;20057;-33
2022/09/03 08:37:31;;;;;;;5.17;4.67;;;16.90;99.90;;;;;;5082104;28;20110;-32
2022/09/03 08:39:57;;;;;;;6.55;4.30;;;17.00;99.90;;;;;;5083243;28;20032;-36
2022/09/03 08:42:36;;;;;;;5.50;4.43;;;17.10;99.90;;;;;;5079484;28;20103;-33
2022/09/03 08:45:06;;;;;;;5.00;4.50;;;17.30;99.90;;;;;;5082529;28;20078;-32
2022/09/03 08:47:42;;;;;;;4.40;4.00;;;17.40;99.90;;;;;;5080936;28;20059;-32
2022/09/03 08:50:31;;;;;;;5.88;4.88;;;17.40;99.90;;;;;;5082848;28;20671;-33
2022/09/03 08:53:08;;;;;;;4.97;4.55;;;17.40;99.90;;;;;;5083342;28;20028;-32
2022/09/03 08:55:51;;;;;;;5.80;5.22;;;17.40;99.90;;;;;;5084119;28;20434;-32
2022/09/03 08:58:24;;;;;;;5.85;4.40;;;17.40;99.90;;;;;;5083294;28;20024;-33
2022/09/03 09:01:23;;;;;;;7.25;4.90;;;17.50;99.90;;;;;;5083815;28;20043;-32
2022/09/03 09:04:01;;;;;;;5.10;4.40;;;17.70;99.90;;;;;;5082344;28;20021;-34
2022/09/03 09:06:48;;;;;;;5.25;4.75;;;18.00;99.90;;;;;;5062973;28;20473;-32
2022/09/03 09:09:58;;;;;;;4.63;4.10;;;18.30;99.90;;;;;;5065202;28;20032;-31
2022/09/03 09:12:34;;;;;;;5.18;3.60;;;18.30;99.90;;;;;;5001258;28;20042;-31
2022/09/03 09:15:32;;;;;;;5.07;4.20;;;18.50;99.90;;;;;;5073279;28;20062;-33
2022/09/03 09:18:42;;;;;;;6.05;4.05;;;18.50;99.90;;;;;;5073538;28;20039;-37
2022/09/03 09:21:28;;;;;;;4.03;3.40;;;18.60;99.90;;;;;;5004370;28;20050;-32
2022/09/03 09:24:02;;;;;;;6.90;3.40;;;19.00;99.90;;;;;;4990191;28;20396;-33
2022/09/03 09:26:28;;;;;;;3.47;3.17;;;18.90;99.90;;;;;;5050208;28;20046;-32
2022/09/03 09:29:01;;;;;;;3.72;3.13;;;18.90;99.90;;;;;;5051100;28;20557;-31
2022/09/03 09:31:29;;;;;;;3.15;2.60;;;19.10;99.90;;;;;;5084283;28;20036;-32
2022/09/03 09:34:00;;;;;;;3.42;3.10;;;19.00;99.90;;;;;;5085072;28;20385;-34
2022/09/03 09:36:27;;;;;;;3.33;2.80;;;19.10;99.90;;;;;;5085350;28;20032;-32
2022/09/03 09:38:53;;;;;;;3.13;2.83;;;19.20;99.90;;;;;;5086740;28;20065;-32
2022/09/03 09:41:22;;;;;;;2.92;2.60;;;19.20;99.90;;;;;;5087135;28;20090;-34
2022/09/03 09:43:58;;;;;;;3.53;2.70;;;19.10;99.90;;;;;;5082343;28;20066;-33
2022/09/03 09:46:29;;;;;;;2.97;2.78;;;19.10;99.90;;;;;;5085505;28;20028;-32
2022/09/03 09:48:57;;;;;;;3.25;2.92;;;19.20;99.90;;;;;;5083283;28;20024;-34
2022/09/03 09:51:24;;;;;;;4.05;2.80;;;19.20;99.90;;;;;;5087152;28;20112;-36
2022/09/03 09:54:02;;;;;;;3.65;2.78;;;19.20;99.90;;;;;;5084742;28;20040;-33
2022/09/03 09:56:28;;;;;;;;;;;19.20;99.90;;;;;;5086048;28;20438;-33
2022/09/03 09:59:03;;;;;;;3.00;2.42;;;19.20;99.90;;;;;;5084027;28;19915;-35
2022/09/03 10:01:31;;;;;;;2.72;2.40;;;19.20;99.90;;;;;;5085713;28;20059;-33
2022/09/03 10:03:59;;;;;;;2.58;2.20;;;19.20;99.90;;;;;;5086506;28;20024;-33
2022/09/03 10:09:32;;;;;;;3.08;2.40;;;19.40;99.90;;;;;;5084313;28;20026;-33
2022/09/03 10:12:06;;;;;;;2.20;2.00;;;19.30;99.90;;;;;;5085388;28;20099;-34
2022/09/03 10:14:50;;;;;;;2.63;1.88;;;19.10;99.90;;;;;;5082787;28;20044;-32
2022/09/03 10:17:28;;;;;;;1.75;1.65;;;19.00;99.90;;;;;;5083945;28;20024;-32
2022/09/03 10:20:29;;;;;;;2.20;2.00;;;19.00;99.90;;;;;;5077361;28;20415;-36
2022/09/03 10:23:03;;;;;;;3.80;1.70;;;19.00;99.90;;;;;;5075884;28;20443;-34
2022/09/03 10:25:38;;;;;;;1.98;1.77;;;19.00;99.90;;;;;;5083514;28;20526;-32
2022/09/03 10:28:06;;;;;;;2.28;1.90;;;19.10;99.90;;;;;;5084224;28;20024;-32
2022/09/03 10:30:48;;;;;;;4.05;1.92;;;19.10;99.90;;;;;;5083285;28;20020;-34
2022/09/03 10:33:48;;;;;;;2.33;2.13;;;19.20;99.90;;;;;;5084367;28;20016;-32
2022/09/03 10:36:28;;;;;;;2.45;2.25;;;19.30;99.90;;;;;;5084587;28;20123;-33
2022/09/03 10:39:04;;;;;;;2.70;2.38;;;19.40;99.90;;;;;;5081440;28;20028;-34
2022/09/03 10:41:40;;;;;;;2.38;2.05;;;19.50;99.90;;;;;;5080329;28;20092;-34
2022/09/03 10:44:17;;;;;;;2.60;2.35;;;19.40;99.90;;;;;;5080413;28;20062;-34
2022/09/03 10:46:54;;;;;;;2.80;2.20;;;19.30;99.90;;;;;;5084638;28;20024;-32
2022/09/03 10:49:24;;;;;;;2.50;2.20;;;19.40;99.90;;;;;;5084394;28;20428;-31
2022/09/03 10:52:05;;;;;;;2.65;2.35;;;19.40;99.90;;;;;;5085042;28;20023;-33
2022/09/03 10:55:14;;;;;;;3.05;2.35;;;19.50;99.90;;;;;;5085486;28;20174;-32
2022/09/03 10:58:24;;;;;;;2.38;2.10;;;19.60;99.90;;;;;;5069312;28;20028;-32
2022/09/03 11:01:02;;;;;;;2.40;2.20;;;19.90;99.90;;;;;;5060926;28;20035;-33
2022/09/03 11:03:31;;;;;;;;;;;19.90;99.90;;;;;;5085002;28;20493;-31
2022/09/03 11:06:08;;;;;;;2.10;1.98;;;20.00;99.90;;;;;;5067778;28;20208;-32
2022/09/03 11:08:41;;;;;;;2.33;2.13;;;20.20;99.90;;;;;;5084824;28;20028;-32
2022/09/03 11:11:18;;;;;;;3.90;2.33;;;20.40;99.90;;;;;;5085036;28;20069;-34
2022/09/03 11:13:49;;;;;;;2.20;2.00;;;20.20;99.90;;;;;;5080548;28;20088;-32
2022/09/03 11:16:27;;;;;;;3.47;1.88;;;20.30;99.90;;;;;;5084650;28;20069;-33
2022/09/03 11:19:02;;;;;;;2.90;2.25;;;20.30;99.90;;;;;;5083596;28;20496;-33
2022/09/03 11:21:30;;;;;;;2.08;1.75;;;20.20;99.90;;;;;;5081918;28;20452;-32
2022/09/03 11:24:12;;;;;;;2.35;2.15;;;20.40;99.90;;;;;;5087223;28;20446;-33
2022/09/03 11:26:39;;;;;;;3.22;1.80;;;20.60;99.90;;;;;;5083989;28;20504;-33
2022/09/03 11:29:36;;;;;;;2.05;1.85;;;20.90;99.90;;;;;;5086295;28;20034;-32
2022/09/03 11:32:09;;;;;;;2.28;2.08;;;21.20;99.90;;;;;;5077836;28;20493;-31
2022/09/03 11:34:50;;;;;;;2.15;1.95;;;21.30;99.90;;;;;;5083711;28;20031;-35
2022/09/03 11:37:25;;;;;;;2.13;1.75;;;21.20;99.90;;;;;;5083332;28;20065;-34
2022/09/03 11:39:55;;;;;;;3.72;2.00;;;21.30;99.90;;;;;;5082403;28;20035;-34
2022/09/03 11:42:42;;;;;;;1.90;1.70;;;21.30;99.90;;;;;;5084725;28;20050;-33
2022/09/03 11:45:20;;;;;;;1.63;1.53;;;21.30;99.90;;;;;;5081175;28;20030;-33
2022/09/03 11:47:46;;;;;;;1.60;1.50;;;21.60;99.90;;;;;;5079408;28;20604;-32
2022/09/03 11:50:26;;;;;;;1.58;1.48;;;21.40;98.10;;;;;;5085330;28;20107;-32
2022/09/03 11:53:08;;;;;;;1.55;1.45;;;21.30;99.50;;;;;;5084328;28;20039;-34
2022/09/03 11:56:03;;;;;;;1.70;1.60;;;21.40;99.00;;;;;;5078794;28;20497;-32
2022/09/03 11:58:33;;;;;;;1.80;1.50;;;21.50;99.90;;;;;;5083043;28;20051;-34
2022/09/03 12:01:02;;;;;;;2.08;1.88;;;21.60;99.90;;;;;;5067647;28;20043;-34
2022/09/03 12:03:42;;;;;;;1.50;1.40;;;21.50;97.80;;;;;;5080867;28;20057;-33
2022/09/03 12:06:26;;;;;;;1.60;1.50;;;21.60;99.90;;;;;;5084790;28;20032;-32
2022/09/03 12:09:10;;;;;;;2.97;1.40;;;21.70;98.70;;;;;;5084168;28;20021;-32
2022/09/03 12:12:00;;;;;;;2.65;1.50;;;21.70;94.60;;;;;;5081785;28;20055;-36
2022/09/03 12:14:49;;;;;;;1.00;1.00;;;21.60;93.30;;;;;;5064540;28;20016;-34
2022/09/03 12:17:26;;;;;;;1.45;1.30;;;21.50;91.40;;;;;;5079557;28;20044;-32
2022/09/03 12:19:57;;;;;;;1.20;1.20;;;21.60;96.60;;;;;;5085362;28;20089;-33
2022/09/03 12:22:27;;;;;;;1.20;1.15;;;21.80;99.10;;;;;;5081855;28;20043;-35
2022/09/03 12:24:53;;;;;;;1.27;1.17;;;21.90;93.00;;;;;;5083525;28;20032;-34
2022/09/03 12:27:23;;;;;;;0.90;0.90;;;21.70;83.10;;;;;;5084914;28;20035;-34
2022/09/03 12:29:58;;;;;;;1.65;1.10;;;21.70;90.10;;;;;;5083791;28;20499;-34
2022/09/03 12:32:35;;;;;;;1.00;1.00;;;21.70;92.80;;;;;;5081429;28;20028;-33
2022/09/03 12:35:19;;;;;;;1.25;1.15;;;21.80;94.10;;;;;;5084287;28;20119;-33
2022/09/03 12:37:45;;;;;;;1.23;1.20;;;21.70;90.00;;;;;;5074852;28;20031;-34
2022/09/03 12:40:24;;;;;;;0.90;0.90;;;21.70;90.70;;;;;;5083959;28;20095;-31
2022/09/03 12:42:51;;;;;;;1.10;1.10;;;21.80;91.80;;;;;;5080079;28;20040;-33
2022/09/03 12:45:25;;;;;;;1.13;1.13;;;21.80;90.50;;;;;;5081924;28;20034;-33
2022/09/03 12:47:52;;;;;;;2.20;1.15;;;21.80;91.70;;;;;;5081861;28;20317;-32
2022/09/03 12:50:22;;;;;;;0.93;0.93;;;21.80;93.10;;;;;;5088424;28;20630;-33
2022/09/03 12:52:53;;;;;;;1.20;1.10;;;21.80;95.40;;;;;;5088288;28;20500;-33
2022/09/03 12:55:46;;;;;;;1.15;1.10;;;21.80;96.60;;;;;;5083834;28;20063;-34
2022/09/03 12:58:21;;;;;;;2.30;1.20;;;21.70;96.00;;;;;;5085723;28;20047;-30
2022/09/03 13:01:13;;;;;;;1.25;1.15;;;21.60;93.50;;;;;;5083728;28;20028;-33
2022/09/03 13:03:48;;;;;;;1.30;1.20;;;21.40;94.60;;;;;;5085479;28;20062;-35
2022/09/03 13:06:20;;;;;;;1.60;1.50;;;21.20;95.90;;;;;;5085099;28;20044;-32
2022/09/03 13:09:00;;;;;;;1.40;1.30;;;21.10;95.20;;;;;;5087373;28;20036;-33
2022/09/03 13:11:28;;;;;;;1.30;1.05;;;20.90;95.90;;;;;;5088285;28;20016;-34
2022/09/03 13:13:54;;;;;;;1.60;1.50;;;20.90;96.60;;;;;;5087376;28;21361;-34
2022/09/03 13:16:34;;;;;;;1.67;1.30;;;20.80;98.10;;;;;;5081517;28;20028;-34
2022/09/03 13:19:19;;;;;;;1.20;1.10;;;20.50;99.90;;;;;;5083050;28;20036;-37
2022/09/03 13:22:00;;;;;;;1.10;1.00;;;19.80;99.90;;;;;;5082777;28;20036;-32
2022/09/03 13:25:00;;;;;;;1.02;0.80;;;19.10;99.90;;;;;;5082942;28;20032;-35